Time;durP1;ratioP1;P1;durP2;ratioP2;P2;SDS_P1;SDS_P2;PMS_P1;PMS_P2;Temp;Humidity;BMP_temperature;BMP_pressure;BME280_temperature;BME280_humidity;BME280_pressure;Samples;Min_cycle;Max_cycle;Signal;HPM_P1;HPM_P2
2022/05/17 00:02:09;;;;;;;20.92;8.18;;;18.30;99.90;;;;;;5099490;28;20024;-74
2022/05/17 00:04:36;;;;;;;13.82;7.15;;;18.30;99.90;;;;;;5099525;28;20476;-74
2022/05/17 00:07:04;;;;;;;18.98;7.43;;;18.30;99.90;;;;;;5099309;28;20032;-74
2022/05/17 00:09:30;;;;;;;20.73;8.30;;;18.30;99.90;;;;;;5098043;28;20035;-74
2022/05/17 00:11:57;;;;;;;14.88;7.93;;;18.30;99.90;;;;;;5099069;28;20036;-74
2022/05/17 00:14:24;;;;;;;13.90;7.63;;;18.20;99.90;;;;;;5097961;28;20035;-74
2022/05/17 00:16:50;;;;;;;16.73;7.95;;;18.20;99.90;;;;;;5083943;28;20074;-74
2022/05/17 00:19:19;;;;;;;19.60;8.10;;;18.20;99.90;;;;;;5099267;28;20051;-74
2022/05/17 00:21:46;;;;;;;12.50;7.32;;;18.10;99.90;;;;;;5098962;28;20099;-74
2022/05/17 00:24:14;;;;;;;15.00;7.65;;;18.10;99.90;;;;;;5097358;28;20035;-74
2022/05/17 00:26:39;;;;;;;13.52;7.28;;;18.00;99.90;;;;;;5098843;28;20024;-74
2022/05/17 00:29:06;;;;;;;15.35;7.70;;;18.00;99.90;;;;;;5097669;28;20606;-74
2022/05/17 00:31:33;;;;;;;14.88;7.00;;;18.00;99.90;;;;;;5098769;28;20021;-74
2022/05/17 00:34:00;;;;;;;18.52;7.72;;;18.00;99.90;;;;;;5098695;28;20031;-74
2022/05/17 00:36:26;;;;;;;19.15;8.15;;;17.90;99.90;;;;;;5114299;28;20020;-74
2022/05/17 00:38:52;;;;;;;13.98;6.53;;;17.90;99.90;;;;;;5097102;28;20456;-74
2022/05/17 00:41:18;;;;;;;16.45;6.93;;;17.90;99.90;;;;;;5097549;28;20027;-74
2022/05/17 00:46:58;;;;;;;15.70;7.65;;;17.90;99.90;;;;;;5098391;28;20434;-74
2022/05/17 00:50:03;;;;;;;18.48;7.57;;;17.90;99.90;;;;;;5096931;28;20483;-74
2022/05/17 00:52:44;;;;;;;17.38;7.50;;;17.80;99.90;;;;;;5098120;28;20020;-74
2022/05/17 00:55:19;;;;;;;19.23;7.50;;;17.90;99.90;;;;;;5096604;28;20027;-74
2022/05/17 00:57:55;;;;;;;14.75;7.45;;;17.80;99.90;;;;;;5096822;28;20055;-74
2022/05/17 01:00:22;;;;;;;15.52;8.25;;;17.80;99.90;;;;;;5096993;28;20032;-74
2022/05/17 01:02:54;;;;;;;12.90;7.32;;;17.70;99.90;;;;;;5097139;28;20145;-74
2022/05/17 01:05:23;;;;;;;16.48;7.63;;;17.70;99.90;;;;;;5096880;28;20497;-74
2022/05/17 01:07:53;;;;;;;11.57;7.22;;;17.70;99.90;;;;;;5096776;28;20035;-74
2022/05/17 01:10:19;;;;;;;19.47;7.70;;;17.60;99.90;;;;;;5097692;28;20408;-74
2022/05/17 01:14:57;;;;;;;13.10;6.38;;;17.60;99.90;;;;;;5098003;28;20028;-74
2022/05/17 01:15:31;;;;;;;15.70;7.18;;;17.60;99.90;;;;;;5079986;28;20535;-74
2022/05/17 01:17:58;;;;;;;12.77;6.47;;;17.50;99.90;;;;;;5090802;28;20024;-74
2022/05/17 01:20:24;;;;;;;13.13;6.85;;;17.50;99.90;;;;;;5096385;28;20514;-74
2022/05/17 01:22:49;;;;;;;15.80;6.93;;;17.50;99.90;;;;;;5098122;28;20032;-74
2022/05/17 01:25:15;;;;;;;15.60;6.70;;;17.40;99.90;;;;;;5097730;28;20388;-74
2022/05/17 01:27:53;;;;;;;23.83;6.38;;;17.30;99.90;;;;;;5097941;28;20028;-74
2022/05/17 01:30:26;;;;;;;14.43;6.60;;;17.30;99.90;;;;;;5096252;28;20043;-74
2022/05/17 01:32:52;;;;;;;12.07;7.38;;;17.30;99.90;;;;;;5097472;28;20032;-74
2022/05/17 01:35:19;;;;;;;19.75;8.45;;;17.30;99.90;;;;;;5097643;28;20020;-74
2022/05/17 01:37:45;;;;;;;11.35;6.72;;;17.20;99.90;;;;;;5097471;28;20024;-74
2022/05/17 01:40:12;;;;;;;11.30;6.45;;;17.20;99.90;;;;;;5097617;28;20024;-74
2022/05/17 01:42:38;;;;;;;11.98;6.40;;;17.20;99.90;;;;;;5097616;28;20070;-71
2022/05/17 01:45:06;;;;;;;17.73;7.15;;;17.20;99.90;;;;;;5097337;28;20050;-74
2022/05/17 01:47:31;;;;;;;19.58;7.45;;;17.20;99.90;;;;;;5097384;28;20503;-74
2022/05/17 01:49:57;;;;;;;13.27;7.82;;;17.20;99.90;;;;;;5096366;28;20074;-74
2022/05/17 01:52:24;;;;;;;16.02;8.10;;;17.10;99.90;;;;;;5095590;28;20426;-74
2022/05/17 01:54:49;;;;;;;18.20;7.95;;;17.10;99.90;;;;;;5096019;28;20035;-74
2022/05/17 01:57:15;;;;;;;20.80;7.30;;;17.10;99.90;;;;;;5096020;28;20389;-74
2022/05/17 01:59:41;;;;;;;13.25;7.20;;;17.00;99.90;;;;;;5097405;28;20020;-74
2022/05/17 02:02:07;;;;;;;17.85;7.50;;;17.00;99.90;;;;;;5097136;28;20035;-74
2022/05/17 02:04:33;;;;;;;10.50;6.82;;;17.00;99.90;;;;;;5097096;28;20093;-74
2022/05/17 02:06:59;;;;;;;13.00;7.38;;;17.00;99.90;;;;;;5095778;28;20062;-74
2022/05/17 02:09:25;;;;;;;14.90;7.60;;;16.90;99.90;;;;;;5096842;28;20047;-74
2022/05/17 02:11:51;;;;;;;14.68;7.38;;;16.90;99.90;;;;;;5097088;28;20028;-74
2022/05/17 02:14:17;;;;;;;16.58;7.95;;;16.90;99.90;;;;;;5095560;28;20032;-74
2022/05/17 02:16:43;;;;;;;12.73;7.13;;;16.80;99.90;;;;;;5082249;28;20111;-74
2022/05/17 02:19:09;;;;;;;14.57;7.75;;;16.80;99.90;;;;;;5096069;28;20035;-74
2022/05/17 02:21:36;;;;;;;13.77;8.25;;;16.80;99.90;;;;;;5095580;28;20016;-74
2022/05/17 02:24:04;;;;;;;15.40;7.15;;;16.80;99.90;;;;;;5095429;28;20100;-74
2022/05/17 02:26:30;;;;;;;22.80;6.38;;;16.80;99.90;;;;;;5096835;28;20052;-74
2022/05/17 02:28:56;;;;;;;20.27;7.03;;;16.70;99.90;;;;;;5096880;28;20028;-74
2022/05/17 02:31:23;;;;;;;13.02;7.65;;;16.70;99.90;;;;;;5095658;28;20507;-74
2022/05/17 02:33:49;;;;;;;14.85;7.40;;;16.70;99.90;;;;;;5095621;28;20055;-74
2022/05/17 02:36:15;;;;;;;18.92;7.75;;;16.70;99.90;;;;;;5096679;28;20024;-74
2022/05/17 02:38:43;;;;;;;17.50;8.23;;;16.70;99.90;;;;;;5097125;28;20040;-74
2022/05/17 02:41:10;;;;;;;18.50;8.05;;;16.70;99.90;;;;;;5096705;28;20020;-74
2022/05/17 02:43:37;;;;;;;17.20;8.90;;;16.70;99.90;;;;;;5096898;28;20028;-74
2022/05/17 02:46:03;;;;;;;18.35;7.35;;;16.70;99.90;;;;;;5095343;28;20121;-73
2022/05/17 02:48:28;;;;;;;12.80;7.25;;;16.70;99.90;;;;;;5096706;28;20024;-73
2022/05/17 02:50:55;;;;;;;20.15;7.07;;;16.60;99.90;;;;;;5095284;28;20035;-74
2022/05/17 02:53:22;;;;;;;17.63;7.07;;;16.60;99.90;;;;;;5095627;28;20052;-74
2022/05/17 02:55:49;;;;;;;18.98;8.07;;;16.60;99.90;;;;;;5096265;28;20024;-73
2022/05/17 02:58:14;;;;;;;22.38;8.52;;;16.50;99.90;;;;;;5096573;28;20064;-74
2022/05/17 03:00:40;;;;;;;16.73;7.75;;;16.50;99.90;;;;;;5095330;28;20074;-74
2022/05/17 03:03:08;;;;;;;15.57;7.45;;;16.50;99.90;;;;;;5096372;28;20039;-74
2022/05/17 03:05:34;;;;;;;17.70;7.40;;;16.40;99.90;;;;;;5100317;28;20044;-74
2022/05/17 03:08:00;;;;;;;15.18;7.93;;;16.50;99.90;;;;;;5099178;28;20027;-74
2022/05/17 03:10:28;;;;;;;14.43;7.15;;;16.50;99.90;;;;;;5100038;28;20024;-74
2022/05/17 03:12:54;;;;;;;13.88;8.23;;;16.40;99.90;;;;;;5099092;28;20032;-74
2022/05/17 03:15:21;;;;;;;10.20;8.02;;;16.40;99.90;;;;;;5093830;28;20035;-74
2022/05/17 03:17:47;;;;;;;16.30;7.53;;;16.40;99.90;;;;;;5090605;28;20020;-74
2022/05/17 03:20:13;;;;;;;17.50;8.20;;;16.40;99.90;;;;;;5098721;28;20562;-74
2022/05/17 03:22:39;;;;;;;14.85;8.02;;;16.30;99.90;;;;;;5100170;28;20047;-74
2022/05/17 03:25:06;;;;;;;15.05;7.57;;;16.30;99.90;;;;;;5099858;28;20468;-74
2022/05/17 03:27:32;;;;;;;14.00;7.78;;;16.30;99.90;;;;;;5100118;28;20502;-73
2022/05/17 03:29:58;;;;;;;16.48;8.77;;;16.20;99.90;;;;;;5098710;28;20020;-74
2022/05/17 03:32:23;;;;;;;14.70;7.72;;;16.20;99.90;;;;;;5098977;28;20028;-74
2022/05/17 03:34:49;;;;;;;16.13;7.82;;;16.20;99.90;;;;;;5099030;28;20023;-74
2022/05/17 03:37:15;;;;;;;13.07;8.18;;;16.10;99.90;;;;;;5098559;28;20035;-74
2022/05/17 03:39:41;;;;;;;15.80;8.20;;;16.10;99.90;;;;;;5099479;28;20016;-74
2022/05/17 03:42:09;;;;;;;15.40;7.60;;;16.10;99.90;;;;;;5099766;28;20031;-74
2022/05/17 03:44:38;;;;;;;14.88;8.27;;;16.10;99.90;;;;;;5099541;28;20111;-74
2022/05/17 03:47:06;;;;;;;22.77;8.70;;;16.00;99.90;;;;;;5099697;28;20397;-74
2022/05/17 03:49:32;;;;;;;15.82;7.18;;;16.00;99.90;;;;;;5099597;28;20028;-74
2022/05/17 03:51:58;;;;;;;15.30;7.70;;;16.00;99.90;;;;;;5098611;28;20377;-74
2022/05/17 03:54:25;;;;;;;14.93;7.53;;;16.00;99.90;;;;;;5097846;28;20046;-74
2022/05/17 03:56:51;;;;;;;18.35;8.60;;;16.00;99.90;;;;;;5099833;28;20024;-74
2022/05/17 03:59:17;;;;;;;16.83;7.50;;;15.90;99.90;;;;;;5099279;28;20027;-74
2022/05/17 04:01:44;;;;;;;14.75;8.88;;;15.90;99.90;;;;;;5099587;28;20403;-74
2022/05/17 04:04:11;;;;;;;18.00;8.18;;;15.90;99.90;;;;;;5099231;28;20405;-74
2022/05/17 04:06:37;;;;;;;14.70;8.23;;;15.90;99.90;;;;;;5099554;28;20017;-74
2022/05/17 04:09:05;;;;;;;17.42;9.27;;;15.90;99.90;;;;;;5099054;28;20442;-74
2022/05/17 04:11:34;;;;;;;17.98;8.10;;;15.80;99.90;;;;;;5098002;28;20027;-74
2022/05/17 04:14:01;;;;;;;15.23;8.75;;;15.80;99.90;;;;;;5098508;28;20020;-74
2022/05/17 04:16:36;;;;;;;18.65;8.27;;;15.70;99.90;;;;;;5083465;28;20035;-74
2022/05/17 04:19:04;;;;;;;15.20;7.82;;;15.70;99.90;;;;;;5099461;28;20032;-74
2022/05/17 04:21:31;;;;;;;13.25;8.40;;;15.70;99.90;;;;;;5099312;28;20024;-74
2022/05/17 04:23:57;;;;;;;16.27;8.43;;;15.70;99.90;;;;;;5098904;28;20032;-74
2022/05/17 04:26:24;;;;;;;16.45;9.55;;;15.70;99.90;;;;;;5097555;28;20028;-74
2022/05/17 04:28:50;;;;;;;16.42;8.63;;;15.70;99.90;;;;;;5097926;28;20020;-74
2022/05/17 04:31:16;;;;;;;11.75;8.30;;;15.70;99.90;;;;;;5098910;28;20023;-74
2022/05/17 04:33:43;;;;;;;18.83;8.75;;;15.70;99.90;;;;;;5098980;28;20036;-74
2022/05/17 04:36:09;;;;;;;10.52;7.65;;;15.70;99.90;;;;;;5098832;28;20046;-74
2022/05/17 04:38:35;;;;;;;19.10;9.10;;;15.60;99.90;;;;;;5098838;28;20078;-74
2022/05/17 04:41:02;;;;;;;18.40;9.50;;;15.70;99.90;;;;;;5098802;28;20028;-74
2022/05/17 04:43:29;;;;;;;18.45;8.75;;;15.70;99.90;;;;;;5097440;28;20119;-74
2022/05/17 04:45:56;;;;;;;17.02;8.85;;;15.70;99.90;;;;;;5097228;28;20044;-74
2022/05/17 04:48:24;;;;;;;16.95;9.40;;;15.70;99.90;;;;;;5098783;28;20047;-73
2022/05/17 04:50:51;;;;;;;22.27;8.98;;;15.70;99.90;;;;;;5098655;28;20020;-73
2022/05/17 04:53:17;;;;;;;15.73;8.88;;;15.70;99.90;;;;;;5097235;28;20459;-73
2022/05/17 04:55:43;;;;;;;18.83;8.85;;;15.70;99.90;;;;;;5098116;28;20101;-73
2022/05/17 04:58:09;;;;;;;16.60;9.05;;;15.70;99.90;;;;;;5098485;28;20028;-73
2022/05/17 05:00:35;;;;;;;20.83;9.02;;;15.80;99.90;;;;;;5098267;28;20078;-73
2022/05/17 05:03:01;;;;;;;18.35;9.20;;;15.80;99.90;;;;;;5098623;28;20024;-74
2022/05/17 05:05:27;;;;;;;20.02;9.73;;;15.90;99.90;;;;;;5097214;28;20016;-73
2022/05/17 05:07:53;;;;;;;18.85;8.95;;;15.90;99.90;;;;;;5097316;28;20085;-73
2022/05/17 05:10:20;;;;;;;20.98;9.68;;;16.00;99.90;;;;;;5097972;28;20073;-74
2022/05/17 05:12:46;;;;;;;20.60;9.27;;;16.00;99.90;;;;;;5096995;28;20074;-74
2022/05/17 05:15:13;;;;;;;19.67;9.63;;;16.10;99.90;;;;;;5093046;28;20503;-73
2022/05/17 05:17:40;;;;;;;18.70;9.93;;;16.20;99.90;;;;;;5087251;28;20028;-74
2022/05/17 05:20:10;;;;;;;20.85;10.40;;;16.30;99.90;;;;;;5098159;28;20396;-74
2022/05/17 05:22:36;;;;;;;16.35;9.18;;;16.40;99.90;;;;;;5097971;28;20459;-74
2022/05/17 05:25:02;;;;;;;20.05;9.65;;;16.50;99.90;;;;;;5097658;28;20020;-74
2022/05/17 05:27:36;;;;;;;13.85;8.77;;;16.60;99.90;;;;;;5097578;28;20024;-74
2022/05/17 05:30:04;;;;;;;18.08;8.90;;;16.70;99.90;;;;;;5096378;28;20100;-74
2022/05/17 05:32:30;;;;;;;17.60;8.90;;;16.80;99.90;;;;;;5093573;28;20027;-74
2022/05/17 05:34:56;;;;;;;14.88;8.77;;;17.00;99.90;;;;;;5095723;28;20073;-74
2022/05/17 05:37:21;;;;;;;17.10;8.80;;;17.10;99.90;;;;;;5096490;28;20113;-74
2022/05/17 05:39:47;;;;;;;16.23;9.10;;;17.10;99.90;;;;;;5097461;28;20016;-74
2022/05/17 05:42:13;;;;;;;17.65;8.82;;;17.30;99.90;;;;;;5096322;28;20110;-74
2022/05/17 05:44:39;;;;;;;16.60;8.77;;;17.40;99.90;;;;;;5097644;28;20052;-74
2022/05/17 05:47:05;;;;;;;22.08;8.23;;;17.40;99.90;;;;;;5097457;28;20067;-75
2022/05/17 05:49:31;;;;;;;19.95;8.18;;;17.50;99.90;;;;;;5097303;28;20020;-74
2022/05/17 05:51:57;;;;;;;18.77;9.45;;;17.60;99.90;;;;;;5097441;28;20392;-73
2022/05/17 05:54:23;;;;;;;22.92;8.45;;;17.80;99.90;;;;;;5095608;28;20028;-74
2022/05/17 05:56:49;;;;;;;12.90;7.65;;;17.90;99.90;;;;;;5096122;28;20027;-74
2022/05/17 05:59:15;;;;;;;15.13;7.60;;;18.00;99.90;;;;;;5095805;28;20024;-74
2022/05/17 06:01:41;;;;;;;26.67;7.65;;;18.10;99.90;;;;;;5097353;28;20543;-75
2022/05/17 06:04:07;;;;;;;17.60;7.40;;;18.20;99.90;;;;;;5097022;28;20451;-74
2022/05/17 06:06:35;;;;;;;19.88;7.75;;;18.30;99.90;;;;;;5097237;28;20028;-74
2022/05/17 06:09:01;;;;;;;22.45;7.78;;;18.40;99.90;;;;;;5097139;28;20058;-75
2022/05/17 06:11:27;;;;;;;22.00;9.18;;;18.60;99.90;;;;;;5096005;28;20107;-74
2022/05/17 06:13:53;;;;;;;18.92;8.68;;;18.70;99.90;;;;;;5097114;28;20062;-74
2022/05/17 06:16:19;;;;;;;18.40;7.68;;;18.80;99.90;;;;;;5083770;28;20028;-74
2022/05/17 06:18:45;;;;;;;18.25;7.55;;;19.00;99.90;;;;;;5095447;28;20483;-74
2022/05/17 06:21:11;;;;;;;16.65;7.55;;;19.10;99.90;;;;;;5084433;28;20035;-75
2022/05/17 06:23:37;;;;;;;21.42;7.75;;;19.20;99.90;;;;;;5089115;28;20020;-75
2022/05/17 06:26:03;;;;;;;22.38;7.57;;;19.30;99.90;;;;;;5078581;28;20126;-75
2022/05/17 06:28:29;;;;;;;19.75;7.53;;;19.40;99.90;;;;;;5082408;28;20028;-75
2022/05/17 06:30:55;;;;;;;18.48;7.68;;;19.50;99.90;;;;;;5095688;28;20031;-75
2022/05/17 06:33:21;;;;;;;15.15;7.53;;;19.60;99.90;;;;;;5095717;28;20028;-75
2022/05/17 06:35:48;;;;;;;13.35;6.30;;;19.80;99.90;;;;;;5097099;28;20024;-76
2022/05/17 06:38:15;;;;;;;19.15;7.13;;;19.80;99.90;;;;;;5096982;28;20020;-75
2022/05/17 06:40:41;;;;;;;15.07;6.85;;;19.90;99.90;;;;;;5100593;28;20048;-74
2022/05/17 06:43:07;;;;;;;17.10;7.68;;;20.10;99.90;;;;;;5100852;28;20054;-76
2022/05/17 06:45:33;;;;;;;17.20;7.30;;;20.10;99.90;;;;;;5099402;28;20048;-75
2022/05/17 06:48:00;;;;;;;21.98;6.78;;;20.30;99.90;;;;;;5099772;28;20491;-75
2022/05/17 06:50:27;;;;;;;16.05;6.50;;;20.40;99.90;;;;;;5100978;28;20048;-77
2022/05/17 06:52:53;;;;;;;18.98;5.90;;;20.50;99.90;;;;;;5093879;28;20066;-75
2022/05/17 06:55:21;;;;;;;15.40;6.15;;;20.60;99.90;;;;;;5099379;28;20425;-76
2022/05/17 06:57:48;;;;;;;22.38;7.50;;;20.60;99.90;;;;;;5100861;28;20024;-75
2022/05/17 07:00:14;;;;;;;16.65;6.45;;;20.70;99.90;;;;;;5099341;28;20032;-75
2022/05/17 07:02:40;;;;;;;11.93;5.13;;;20.80;99.90;;;;;;5100889;28;20451;-76
2022/05/17 07:05:08;;;;;;;24.35;6.18;;;21.00;99.90;;;;;;5100667;28;20020;-76
2022/05/17 07:07:34;;;;;;;12.60;6.53;;;21.10;99.90;;;;;;5089809;28;20070;-76
2022/05/17 07:15:29;;;;;;;13.60;6.07;;;21.50;99.90;;;;;;5082882;28;20055;-75
2022/05/17 07:17:57;;;;;;;19.17;6.30;;;21.60;99.90;;;;;;5091397;28;20095;-75
2022/05/17 07:20:23;;;;;;;15.57;6.15;;;21.60;99.90;;;;;;5098984;28;20032;-75
2022/05/17 07:22:49;;;;;;;18.23;5.80;;;21.70;99.90;;;;;;5100099;28;20574;-76
2022/05/17 07:25:15;;;;;;;15.00;6.10;;;21.80;99.90;;;;;;5099712;28;20020;-75
2022/05/17 07:27:41;;;;;;;12.05;6.03;;;21.80;99.90;;;;;;5100086;28;20020;-76
2022/05/17 07:30:07;;;;;;;15.40;5.80;;;21.90;99.90;;;;;;5100010;28;20389;-75
2022/05/17 07:32:33;;;;;;;17.73;6.07;;;22.10;99.90;;;;;;5091690;28;20379;-75
2022/05/17 07:34:59;;;;;;;15.23;6.25;;;22.20;99.90;;;;;;5098830;28;20114;-75
2022/05/17 07:37:25;;;;;;;10.90;6.13;;;22.30;99.90;;;;;;5100041;28;20064;-75
2022/05/17 07:39:51;;;;;;;17.58;5.75;;;22.40;99.90;;;;;;5098201;28;20024;-76
2022/05/17 07:42:16;;;;;;;18.63;5.80;;;22.50;99.90;;;;;;5099728;28;20024;-75
2022/05/17 07:44:42;;;;;;;14.63;5.47;;;22.60;99.90;;;;;;5099523;28;20032;-75
2022/05/17 07:47:08;;;;;;;15.05;4.97;;;22.60;99.90;;;;;;5099520;28;20040;-75
2022/05/17 07:49:35;;;;;;;20.00;6.88;;;22.70;99.90;;;;;;5099329;28;20072;-74
2022/05/17 07:52:02;;;;;;;13.93;6.40;;;22.80;99.90;;;;;;5090374;28;20020;-75
2022/05/17 07:54:28;;;;;;;12.48;5.43;;;22.80;99.90;;;;;;5082907;28;20469;-75
2022/05/17 07:56:54;;;;;;;19.33;5.85;;;22.70;99.90;;;;;;5079880;28;20024;-74
2022/05/17 07:59:20;;;;;;;18.50;5.55;;;22.80;99.90;;;;;;5081973;28;20047;-74
2022/05/17 08:01:46;;;;;;;14.25;5.65;;;23.00;99.90;;;;;;5080002;28;20024;-74
2022/05/17 08:04:12;;;;;;;12.23;5.10;;;23.10;99.90;;;;;;5078835;28;20020;-74
2022/05/17 08:06:39;;;;;;;20.05;5.85;;;23.10;99.90;;;;;;5079492;28;20020;-74
2022/05/17 08:09:05;;;;;;;15.98;6.15;;;23.20;99.90;;;;;;5079973;28;20028;-75
2022/05/17 08:11:31;;;;;;;15.60;5.05;;;23.20;99.90;;;;;;5079450;28;20019;-74
2022/05/17 08:13:57;;;;;;;12.77;4.60;;;23.30;99.90;;;;;;5079458;28;20029;-75
2022/05/17 08:16:23;;;;;;;22.27;5.97;;;23.40;99.90;;;;;;5078885;28;20028;-74
2022/05/17 08:18:49;;;;;;;20.50;5.15;;;23.50;99.90;;;;;;5099517;28;20502;-74
2022/05/17 08:21:15;;;;;;;12.05;4.85;;;23.50;99.90;;;;;;5098097;28;20024;-74
2022/05/17 08:23:41;;;;;;;17.70;4.85;;;23.70;99.90;;;;;;5072011;28;20038;-74
2022/05/17 08:28:51;;;;;;;20.90;5.65;;;23.80;99.90;;;;;;5082325;28;20075;-75
2022/05/17 08:31:17;;;;;;;14.00;5.32;;;23.90;99.90;;;;;;5081158;28;20388;-75
2022/05/17 08:33:43;;;;;;;14.75;6.30;;;24.00;99.90;;;;;;5078840;28;20028;-74
2022/05/17 08:36:11;;;;;;;14.45;4.65;;;24.00;99.90;;;;;;5080427;28;20078;-74
2022/05/17 08:38:46;;;;;;;11.88;4.68;;;24.10;99.90;;;;;;5078278;28;20044;-74
2022/05/17 08:41:36;;;;;;;16.13;5.38;;;24.20;99.90;;;;;;5075557;28;20099;-75
2022/05/17 08:44:09;;;;;;;18.40;5.55;;;24.40;99.90;;;;;;5073727;28;20036;-75
2022/05/17 08:46:57;;;;;;;12.57;4.78;;;24.40;99.90;;;;;;5083132;28;20503;-74
2022/05/17 08:49:33;;;;;;;10.98;4.07;;;24.50;99.90;;;;;;5110828;28;20042;-76
2022/05/17 08:52:14;;;;;;;13.35;4.57;;;24.60;99.90;;;;;;5078516;28;20417;-77
2022/05/17 08:54:55;;;;;;;14.90;4.32;;;24.60;99.90;;;;;;5086137;28;20484;-76
2022/05/17 08:57:30;;;;;;;12.52;4.38;;;24.60;99.90;;;;;;5081995;28;20032;-75
2022/05/17 09:00:04;;;;;;;18.08;4.57;;;24.70;99.90;;;;;;5076550;28;20060;-76
2022/05/17 09:02:49;;;;;;;12.48;4.32;;;24.80;99.90;;;;;;5079508;28;20020;-75
2022/05/17 09:05:29;;;;;;;15.00;4.25;;;24.90;99.90;;;;;;5083912;28;20054;-76
2022/05/17 09:08:22;;;;;;;14.32;4.57;;;24.90;99.90;;;;;;5096968;28;20032;-76
2022/05/17 09:10:59;;;;;;;10.43;4.32;;;25.00;99.90;;;;;;5093803;28;20024;-75
2022/05/17 09:13:31;;;;;;;16.35;4.28;;;25.20;99.90;;;;;;5098067;28;20032;-77
2022/05/17 09:15:59;;;;;;;13.75;4.22;;;25.30;99.90;;;;;;5082854;28;20043;-75
2022/05/17 09:18:26;;;;;;;18.00;4.10;;;25.40;99.90;;;;;;5097935;28;20027;-76
2022/05/17 09:20:52;;;;;;;14.68;4.72;;;25.50;99.90;;;;;;5096797;28;20024;-76
2022/05/17 09:23:19;;;;;;;9.80;4.40;;;25.60;99.90;;;;;;5113442;28;20091;-76
2022/05/17 09:25:50;;;;;;;13.63;4.05;;;25.70;99.90;;;;;;5097869;28;20026;-76
2022/05/17 09:28:27;;;;;;;20.75;4.30;;;25.80;99.90;;;;;;5098091;28;20024;-76
2022/05/17 09:31:32;;;;;;;14.27;4.05;;;25.70;99.90;;;;;;5096627;28;20538;-75
2022/05/17 09:34:06;;;;;;;14.73;3.58;;;25.60;99.90;;;;;;5096103;28;20492;-76
2022/05/17 09:36:52;;;;;;;7.97;3.28;;;25.70;99.90;;;;;;5086255;28;20186;-78
2022/05/17 09:39:23;;;;;;;15.40;3.80;;;25.70;99.90;;;;;;5097597;28;20036;-76
2022/05/17 09:41:49;;;;;;;9.32;3.85;;;25.90;99.90;;;;;;5097866;28;20531;-76
2022/05/17 09:44:23;;;;;;;11.73;3.50;;;25.90;99.90;;;;;;5096071;28;20038;-76
2022/05/17 09:46:55;;;;;;;15.25;3.63;;;26.10;99.90;;;;;;5097775;28;20036;-76
2022/05/17 09:52:32;;;;;;;16.80;4.47;;;26.20;99.20;;;;;;5097452;28;20388;-76
2022/05/17 09:55:20;;;;;;;13.65;3.80;;;26.30;99.50;;;;;;5095926;28;20028;-75
2022/05/17 09:57:53;;;;;;;12.65;3.83;;;26.20;99.90;;;;;;5096105;28;20020;-74
2022/05/17 10:00:30;;;;;;;19.42;4.40;;;26.30;99.90;;;;;;5097272;28;20024;-76
2022/05/17 10:03:00;;;;;;;16.67;3.38;;;26.40;98.40;;;;;;5095965;28;21908;-75
2022/05/17 10:05:43;;;;;;;19.57;4.23;;;26.40;98.70;;;;;;5097394;28;20020;-76
2022/05/17 10:08:14;;;;;;;20.88;4.43;;;26.40;97.90;;;;;;5097481;28;20020;-75
2022/05/17 10:10:46;;;;;;;14.68;4.18;;;26.40;98.40;;;;;;5097078;28;20020;-75
2022/05/17 10:13:32;;;;;;;14.45;3.97;;;26.50;98.20;;;;;;5097252;28;20024;-75
2022/05/17 10:16:12;;;;;;;17.10;3.28;;;26.60;97.80;;;;;;5086905;28;20024;-75
2022/05/17 10:19:23;;;;;;;8.80;3.80;;;26.60;97.50;;;;;;5094474;28;20360;-77
2022/05/17 10:21:57;;;;;;;14.43;3.65;;;26.80;98.10;;;;;;5095918;28;20042;-76
2022/05/17 10:24:29;;;;;;;16.25;3.67;;;26.90;97.40;;;;;;5096764;28;20038;-76
2022/05/17 10:27:09;;;;;;;13.98;3.58;;;26.90;97.00;;;;;;5097118;28;20028;-75
2022/05/17 10:29:50;;;;;;;;;;;26.90;98.10;;;;;;5097316;28;20024;-74
2022/05/17 10:32:26;;;;;;;15.23;4.05;;;27.00;97.70;;;;;;5090974;28;19950;-74
2022/05/17 10:35:04;;;;;;;14.10;3.47;;;27.20;97.10;;;;;;5095700;28;20032;-73
2022/05/17 10:37:44;;;;;;;16.52;3.53;;;27.40;97.30;;;;;;5097052;28;20380;-75
2022/05/17 10:40:14;;;;;;;7.80;3.25;;;27.40;96.70;;;;;;5096794;28;20051;-75
2022/05/17 10:42:43;;;;;;;10.25;3.53;;;27.40;95.30;;;;;;5096944;28;20111;-75
2022/05/17 10:45:17;;;;;;;12.50;3.30;;;27.30;95.60;;;;;;5096746;28;20058;-74
2022/05/17 10:47:50;;;;;;;15.23;3.90;;;27.30;94.50;;;;;;5096741;28;20039;-75
2022/05/17 10:50:45;;;;;;;10.98;3.95;;;27.40;96.00;;;;;;5095740;28;20035;-75
2022/05/17 10:53:35;;;;;;;10.20;3.63;;;27.30;94.70;;;;;;5097061;28;20548;-73
2022/05/17 10:56:04;;;;;;;12.95;3.75;;;27.40;95.00;;;;;;5096632;28;20024;-74
2022/05/17 10:58:58;;;;;;;12.73;3.60;;;27.40;94.20;;;;;;5096668;28;20051;-75
2022/05/17 11:02:00;;;;;;;14.68;4.07;;;27.60;94.30;;;;;;5095232;28;20352;-75
2022/05/17 11:04:57;;;;;;;13.93;3.97;;;27.60;95.10;;;;;;5096563;28;20035;-75
2022/05/17 11:07:47;;;;;;;15.05;3.75;;;27.80;93.80;;;;;;5096424;28;20031;-75
2022/05/17 11:10:26;;;;;;;13.57;4.05;;;27.80;93.70;;;;;;5096225;28;20020;-74
2022/05/17 11:13:08;;;;;;;11.88;3.45;;;27.90;93.20;;;;;;5096780;28;20021;-75
2022/05/17 11:15:38;;;;;;;16.65;3.65;;;27.90;92.90;;;;;;5089727;28;20078;-74
2022/05/17 11:18:19;;;;;;;13.48;3.50;;;28.00;92.50;;;;;;5090301;28;20020;-74
2022/05/17 11:20:53;;;;;;;10.85;3.88;;;28.10;92.60;;;;;;5095135;28;20028;-74
2022/05/17 11:23:50;;;;;;;12.43;3.92;;;28.20;93.40;;;;;;5094836;28;20029;-75
2022/05/17 11:26:30;;;;;;;13.13;3.70;;;28.30;92.30;;;;;;5085807;28;20021;-75
2022/05/17 11:29:11;;;;;;;10.23;3.72;;;28.30;92.00;;;;;;5100490;28;20016;-76
2022/05/17 11:31:46;;;;;;;;;;;28.30;92.00;;;;;;5094262;28;20028;-75
2022/05/17 11:34:30;;;;;;;19.77;4.00;;;28.30;93.20;;;;;;5100077;28;19904;-74
2022/05/17 11:37:05;;;;;;;13.15;4.13;;;28.40;92.20;;;;;;5098612;28;20035;-74
2022/05/17 11:39:31;;;;;;;10.30;3.40;;;28.30;93.10;;;;;;5082732;28;20032;-74
2022/05/17 11:42:35;;;;;;;9.80;3.40;;;28.40;92.20;;;;;;5080579;28;20043;-74
2022/05/17 11:45:49;;;;;;;14.70;3.80;;;28.50;91.00;;;;;;5086213;28;20039;-74
2022/05/17 11:48:39;;;;;;;15.43;4.15;;;28.60;91.80;;;;;;5071598;28;20388;-74
2022/05/17 11:51:05;;;;;;;10.23;3.30;;;28.70;91.00;;;;;;5079702;28;20086;-75
2022/05/17 11:53:40;;;;;;;14.57;4.63;;;28.70;90.80;;;;;;5078530;28;20024;-74
2022/05/17 11:56:25;;;;;;;18.33;3.67;;;28.80;91.50;;;;;;5094738;28;20029;-74
2022/05/17 11:59:19;;;;;;;13.10;4.47;;;29.00;91.30;;;;;;5081248;28;20040;-75
2022/05/17 12:01:47;;;;;;;19.73;3.65;;;29.10;90.10;;;;;;5079422;28;20103;-75
2022/05/17 12:04:19;;;;;;;13.02;3.38;;;29.00;89.90;;;;;;5086701;28;20020;-74
2022/05/17 12:06:51;;;;;;;11.60;3.70;;;29.10;88.60;;;;;;5088465;28;20028;-74
2022/05/17 12:09:20;;;;;;;8.93;2.95;;;29.10;90.20;;;;;;5077792;28;20503;-74
2022/05/17 12:12:10;;;;;;;13.85;3.38;;;29.20;87.70;;;;;;5081157;28;20028;-73
2022/05/17 12:14:39;;;;;;;12.18;3.25;;;29.30;88.30;;;;;;5080389;28;20085;-73
2022/05/17 12:17:20;;;;;;;9.68;3.22;;;29.30;87.70;;;;;;5082906;28;20039;-74
2022/05/17 12:19:58;;;;;;;10.80;3.30;;;29.40;86.40;;;;;;5096685;28;20031;-74
2022/05/17 12:22:55;;;;;;;11.20;3.53;;;29.40;87.60;;;;;;5099182;28;20043;-74
2022/05/17 12:25:25;;;;;;;9.05;2.90;;;29.60;83.60;;;;;;5090468;28;20024;-74
2022/05/17 12:27:51;;;;;;;5.23;2.90;;;29.70;86.10;;;;;;5080521;28;20055;-73
2022/05/17 12:33:09;;;;;;;10.35;3.05;;;29.80;83.20;;;;;;5079367;28;20035;-75
2022/05/17 12:35:35;;;;;;;10.43;3.83;;;29.80;82.90;;;;;;5078799;28;20039;-74
2022/05/17 12:38:02;;;;;;;11.27;3.72;;;29.70;83.50;;;;;;5077467;28;20016;-73
2022/05/17 12:43:31;;;;;;;15.80;3.07;;;29.80;85.30;;;;;;5078255;28;20035;-73
2022/05/17 12:46:14;;;;;;;9.77;2.80;;;29.90;81.70;;;;;;5078307;28;20051;-74
2022/05/17 12:48:41;;;;;;;8.43;2.97;;;29.90;83.30;;;;;;5078227;28;20313;-74
2022/05/17 12:51:10;;;;;;;14.38;3.03;;;30.00;83.70;;;;;;5097870;28;20073;-73
2022/05/17 12:53:43;;;;;;;11.57;3.05;;;30.00;81.70;;;;;;5078200;28;20036;-74
2022/05/17 12:56:22;;;;;;;7.75;2.45;;;30.00;80.40;;;;;;5077513;28;20476;-74
2022/05/17 12:58:56;;;;;;;10.70;3.72;;;30.20;82.00;;;;;;5090215;28;20055;-73
2022/05/17 13:01:25;;;;;;;11.18;3.38;;;30.30;81.40;;;;;;5077261;28;20035;-74
2022/05/17 13:03:54;;;;;;;9.38;2.90;;;30.40;81.30;;;;;;5087961;28;20530;-75
2022/05/17 13:06:20;;;;;;;8.15;2.85;;;30.60;79.20;;;;;;5075546;28;20024;-73
2022/05/17 13:08:47;;;;;;;9.98;2.72;;;30.60;77.20;;;;;;5091902;28;20016;-75
2022/05/17 13:11:26;;;;;;;11.32;3.20;;;30.60;81.30;;;;;;5083055;28;20269;-75
2022/05/17 13:14:07;;;;;;;14.35;3.15;;;30.60;77.20;;;;;;5096280;28;20460;-74
2022/05/17 13:16:38;;;;;;;8.40;2.60;;;30.60;82.70;;;;;;5082853;28;20107;-74